Time;durP1;ratioP1;P1;durP2;ratioP2;P2;SDS_P1;SDS_P2;PMS_P1;PMS_P2;Temp;Humidity;BMP_temperature;BMP_pressure;BME280_temperature;BME280_humidity;BME280_pressure;Samples;Min_cycle;Max_cycle;Signal;HPM_P1;HPM_P2
2023/07/26 00:00:26;;;;;;;1.00;1.00;;;;;;;13.90;75.78;101060.69;5093391;28;20173;-85
2023/07/26 00:02:51;;;;;;;0.83;0.83;;;;;;;13.92;76.03;101067.63;5093070;28;20041;-86
2023/07/26 00:05:17;;;;;;;1.30;1.20;;;;;;;13.93;75.76;101067.63;5093020;28;20024;-85
2023/07/26 00:07:42;;;;;;;1.10;1.10;;;;;;;13.85;76.07;101053.88;5092630;28;20461;-85
2023/07/26 00:10:08;;;;;;;1.03;1.03;;;;;;;13.85;77.21;101056.50;5093265;28;20031;-85
2023/07/26 00:12:33;;;;;;;1.83;1.20;;;;;;;13.94;76.29;101074.56;5093509;28;20110;-86
2023/07/26 00:15:04;;;;;;;0.80;0.80;;;;;;;13.87;77.15;101066.03;5092695;28;20054;-85
2023/07/26 00:17:30;;;;;;;0.90;0.90;;;;;;;13.87;77.18;101066.03;5093596;28;20024;-85
2023/07/26 00:20:01;;;;;;;0.77;0.77;;;;;;;13.78;76.28;101054.94;5093549;28;20060;-85
2023/07/26 00:22:33;;;;;;;0.77;0.77;;;;;;;13.88;76.61;101069.47;5092119;28;20185;-85
2023/07/26 00:25:00;;;;;;;1.00;1.00;;;;;;;13.83;76.37;101060.91;5093054;28;20089;-85
2023/07/26 00:27:35;;;;;;;0.95;0.95;;;;;;;13.74;76.38;101052.41;5092813;28;20476;-86
2023/07/26 00:30:00;;;;;;;1.00;0.85;;;;;;;13.77;76.11;101055.84;5092914;28;20028;-85
2023/07/26 00:32:25;;;;;;;1.10;1.10;;;;;;;13.77;76.31;101059.31;5092841;28;20024;-85
2023/07/26 00:34:51;;;;;;;1.10;0.97;;;;;;;13.74;76.18;101052.41;5093204;28;20016;-86
2023/07/26 00:37:16;;;;;;;1.00;1.00;;;;;;;13.76;76.84;101049.78;5091735;28;20388;-85
2023/07/26 00:39:41;;;;;;;1.10;1.07;;;;;;;13.73;76.30;101057.69;5092769;28;20031;-85
2023/07/26 00:42:07;;;;;;;0.83;0.83;;;;;;;13.77;76.03;101063.66;5092179;28;20032;-86
2023/07/26 00:44:32;;;;;;;1.10;1.10;;;;;;;13.64;76.02;101040.50;5091090;28;20020;-86
2023/07/26 00:46:58;;;;;;;1.30;1.30;;;;;;;13.65;76.23;101049.19;5093076;28;20036;-86
2023/07/26 00:49:23;;;;;;;1.30;1.30;;;;;;;13.63;76.06;101046.59;5094312;28;20056;-85
2023/07/26 00:51:49;;;;;;;1.10;1.10;;;;;;;13.59;76.29;101047.59;5092073;28;20042;-86
2023/07/26 00:54:17;;;;;;;2.17;1.57;;;;;;;13.51;76.21;101039.94;5092722;28;20028;-85
2023/07/26 00:56:43;;;;;;;1.40;1.30;;;;;;;13.46;76.43;101027.94;5092986;28;20028;-86
2023/07/26 00:59:08;;;;;;;1.50;1.40;;;;;;;13.56;76.39;101053.75;5091570;28;20020;-85
2023/07/26 01:01:34;;;;;;;1.50;1.40;;;;;;;13.51;76.86;101044.31;5093086;28;20104;-86
2023/07/26 01:03:59;;;;;;;1.60;1.50;;;;;;;13.47;76.78;101046.13;5092235;28;20024;-85
2023/07/26 01:06:49;;;;;;;2.13;1.23;;;;;;;13.49;76.87;101056.53;5092602;28;20028;-85
2023/07/26 01:10:01;;;;;;;1.00;1.00;;;;;;;13.48;76.89;101054.81;5095882;28;20062;-85
2023/07/26 01:12:36;;;;;;;1.30;1.30;;;;;;;13.37;76.88;101049.81;5050983;28;20055;-86
2023/07/26 01:15:06;;;;;;;1.25;1.15;;;;;;;13.35;77.05;101049.88;5076726;28;20381;-85
2023/07/26 01:17:32;;;;;;;1.30;1.20;;;;;;;13.36;76.95;101048.09;5076689;28;20052;-86
2023/07/26 01:19:57;;;;;;;1.20;1.20;;;;;;;13.36;76.92;101063.75;5075711;28;20459;-86
2023/07/26 01:22:22;;;;;;;1.57;1.47;;;;;;;13.31;77.77;101057.78;5076319;28;20028;-85
2023/07/26 01:24:48;;;;;;;1.50;1.40;;;;;;;13.19;78.30;101044.16;5076466;28;20388;-85
2023/07/26 01:27:13;;;;;;;1.30;1.30;;;;;;;13.22;77.73;101062.34;5074982;28;20418;-86
2023/07/26 01:29:54;;;;;;;1.40;1.30;;;;;;;13.15;78.27;101050.31;5076616;28;20019;-85
2023/07/26 01:32:25;;;;;;;1.33;1.27;;;;;;;13.16;78.12;101056.41;5080815;28;20579;-85
2023/07/26 01:34:54;;;;;;;1.00;1.00;;;;;;;13.20;79.61;101061.50;5096379;28;20035;-85
2023/07/26 01:37:24;;;;;;;1.38;1.27;;;;;;;13.07;78.79;101047.03;5095975;28;20541;-85
2023/07/26 01:39:51;;;;;;;1.08;1.08;;;;;;;13.13;79.13;101059.91;5095685;28;20019;-85
2023/07/26 01:42:19;;;;;;;1.70;1.60;;;;;;;13.07;80.21;101050.47;5095553;28;20026;-85
2023/07/26 01:44:45;;;;;;;1.60;1.50;;;;;;;13.00;79.27;101040.25;5095674;28;20047;-85
2023/07/26 01:47:10;;;;;;;1.10;1.10;;;;;;;13.14;79.78;101061.63;5094311;28;20023;-85
2023/07/26 01:49:35;;;;;;;1.20;1.10;;;;;;;13.13;80.15;101054.69;5094761;28;20024;-85
2023/07/26 01:52:04;;;;;;;1.60;1.50;;;;;;;13.09;80.89;101047.88;5095021;28;20035;-85
2023/07/26 01:54:29;;;;;;;1.60;1.50;;;;;;;13.01;80.67;101032.41;5093924;28;20024;-85
2023/07/26 01:56:58;;;;;;;1.90;1.80;;;;;;;13.06;81.50;101048.75;5098194;28;20470;-85
2023/07/26 01:59:23;;;;;;;1.70;1.60;;;;;;;13.06;80.81;101045.31;5094713;28;20020;-85
2023/07/26 02:01:48;;;;;;;1.60;1.50;;;;;;;13.01;80.66;101041.94;5078092;28;20025;-85
2023/07/26 02:04:14;;;;;;;1.83;1.73;;;;;;;13.03;81.96;101047.97;5074225;28;20115;-86
2023/07/26 02:06:39;;;;;;;2.20;2.00;;;;;;;13.06;80.95;101053.97;5074551;28;20044;-85
2023/07/26 02:09:05;;;;;;;2.00;1.90;;;;;;;13.07;80.98;101052.25;5073251;28;20021;-86
2023/07/26 02:11:30;;;;;;;1.77;1.67;;;;;;;13.05;80.78;101054.03;5074662;28;20044;-86
2023/07/26 02:13:56;;;;;;;1.60;1.50;;;;;;;13.02;80.36;101054.09;5074573;28;20016;-85
2023/07/26 02:16:21;;;;;;;1.30;1.30;;;;;;;13.05;80.24;101061.84;5073314;28;20071;-85
2023/07/26 02:18:46;;;;;;;1.50;1.40;;;;;;;13.12;80.30;101069.50;5073591;28;20032;-85
2023/07/26 02:21:12;;;;;;;1.30;1.20;;;;;;;13.11;80.88;101053.91;5073293;28;20165;-84
2023/07/26 02:23:37;;;;;;;1.10;1.00;;;;;;;13.05;81.88;101039.25;5073377;28;20465;-84
2023/07/26 02:26:03;;;;;;;1.10;1.00;;;;;;;13.11;81.67;101049.53;5074059;28;20056;-83
2023/07/26 02:28:29;;;;;;;1.13;1.13;;;;;;;13.07;81.24;101047.03;5073107;28;20021;-83
2023/07/26 02:30:54;;;;;;;1.00;1.00;;;;;;;13.12;80.69;101051.25;5073917;28;20024;-84
2023/07/26 02:33:19;;;;;;;1.20;1.20;;;;;;;13.09;80.94;101040.03;5073642;28;20020;-84
2023/07/26 02:35:45;;;;;;;1.00;1.00;;;;;;;12.98;81.30;101035.06;5072987;28;20017;-83
2023/07/26 02:38:10;;;;;;;1.03;1.03;;;;;;;12.97;81.62;101039.44;5073266;28;20063;-84
2023/07/26 02:40:36;;;;;;;1.43;1.33;;;;;;;13.00;81.17;101048.06;5073765;28;20020;-84
2023/07/26 02:43:10;;;;;;;1.40;1.30;;;;;;;12.98;81.23;101046.34;5092142;28;20024;-84
2023/07/26 02:47:42;;;;;;;1.45;1.35;;;;;;;12.99;81.14;101055.00;5110046;27;20412;-84
2023/07/26 02:50:13;;;;;;;1.40;1.30;;;;;;;12.85;82.98;101037.09;5109651;28;20036;-85
2023/07/26 02:53:18;;;;;;;1.20;1.10;;;;;;;12.88;81.92;101036.16;5093657;28;20126;-85
2023/07/26 02:56:07;;;;;;;1.08;1.08;;;;;;;12.95;82.16;101054.22;5053930;28;20048;-84
2023/07/26 02:58:34;;;;;;;;;;;;;;;12.96;82.75;101052.47;5108697;28;20035;-85
2023/07/26 03:01:02;;;;;;;;;;;;;;;12.95;82.60;101069.84;5109778;28;19915;-84
2023/07/26 03:03:29;;;;;;;1.23;1.23;;;;;;;12.95;82.91;101067.25;5110536;28;19916;-86
2023/07/26 03:06:18;;;;;;;1.10;1.10;;;;;;;12.82;83.06;101052.78;5112375;28;20032;-84
2023/07/26 03:08:43;;;;;;;1.02;1.02;;;;;;;12.87;83.91;101070.91;5110651;28;20024;-85
2023/07/26 03:11:08;;;;;;;1.00;1.00;;;;;;;12.83;83.90;101076.16;5109301;28;20012;-85
2023/07/26 03:13:34;;;;;;;0.73;0.73;;;;;;;12.86;83.90;101090.03;5110371;28;20028;-84
2023/07/26 03:15:59;;;;;;;0.90;0.90;;;;;;;12.85;84.11;101089.19;5110458;28;20049;-84
2023/07/26 03:18:24;;;;;;;0.60;0.60;;;;;;;12.79;84.62;101073.66;5109203;28;20110;-85
2023/07/26 03:20:50;;;;;;;0.80;0.80;;;;;;;12.82;84.82;101071.88;5110072;28;20024;-84
2023/07/26 03:23:15;;;;;;;1.07;1.07;;;;;;;12.74;85.71;101059.91;5109718;28;20020;-83
2023/07/26 03:25:53;;;;;;;0.87;0.87;;;;;;;12.75;85.12;101059.84;5109548;28;20016;-84
2023/07/26 03:28:18;;;;;;;1.05;1.05;;;;;;;12.74;85.70;101065.09;5109674;28;20099;-84
2023/07/26 03:30:44;;;;;;;1.00;1.00;;;;;;;12.70;84.58;101064.31;5110199;28;20511;-85
2023/07/26 03:33:09;;;;;;;3.17;1.50;;;;;;;12.70;85.73;101068.66;5108631;28;20057;-85
2023/07/26 03:35:35;;;;;;;1.03;1.00;;;;;;;12.67;85.14;101070.44;5109888;28;20040;-84
2023/07/26 03:38:00;;;;;;;1.43;1.20;;;;;;;12.55;84.37;101059.41;5109624;28;20467;-84
2023/07/26 03:40:25;;;;;;;1.33;1.23;;;;;;;12.51;84.42;101067.28;5108426;28;20039;-84
2023/07/26 03:42:51;;;;;;;1.60;1.50;;;;;;;12.41;84.11;101060.53;5109615;28;20020;-84
2023/07/26 03:45:16;;;;;;;1.50;1.40;;;;;;;12.50;84.50;101072.53;5109235;28;20047;-84
2023/07/26 03:47:42;;;;;;;1.43;1.33;;;;;;;12.45;84.09;101061.31;5109041;28;20031;-84
2023/07/26 03:50:07;;;;;;;1.27;1.23;;;;;;;12.38;84.41;101054.53;5109048;28;20491;-84
2023/07/26 03:52:46;;;;;;;1.60;1.50;;;;;;;12.32;84.16;101055.50;5109459;28;20019;-84
2023/07/26 03:55:14;;;;;;;1.50;1.40;;;;;;;12.30;84.08;101057.28;5108986;28;20056;-84
2023/07/26 03:57:40;;;;;;;1.38;1.27;;;;;;;12.32;84.54;101073.72;5100376;28;20031;-83
2023/07/26 04:00:06;;;;;;;1.43;1.33;;;;;;;12.28;84.49;101077.25;5094847;28;20035;-84
2023/07/26 04:02:31;;;;;;;1.52;1.42;;;;;;;12.21;84.60;101063.53;5096014;28;20402;-84
2023/07/26 04:04:57;;;;;;;1.70;1.60;;;;;;;12.14;84.56;101051.50;5095884;28;20024;-84
2023/07/26 04:07:23;;;;;;;1.50;1.40;;;;;;;12.17;84.76;101062.72;5094564;28;20093;-84
2023/07/26 04:09:48;;;;;;;1.63;1.50;;;;;;;12.16;84.50;101061.00;5095395;28;20048;-84
2023/07/26 04:12:14;;;;;;;1.60;1.50;;;;;;;12.10;85.05;101062.88;5095025;28;20460;-84
2023/07/26 04:14:40;;;;;;;1.40;1.30;;;;;;;12.11;84.92;101070.66;5094832;28;20078;-84
2023/07/26 04:17:05;;;;;;;1.80;1.70;;;;;;;12.07;85.06;101058.56;5095170;28;20035;-83
2023/07/26 04:19:30;;;;;;;1.30;1.30;;;;;;;12.07;85.49;101058.56;5095248;28;20459;-84
2023/07/26 04:22:08;;;;;;;1.90;1.70;;;;;;;12.08;85.34;101062.88;5094662;28;20232;-84
2023/07/26 04:24:34;;;;;;;2.47;1.80;;;;;;;12.07;85.10;101065.53;5095240;28;20443;-84
2023/07/26 04:27:05;;;;;;;1.83;1.73;;;;;;;12.00;85.43;101049.16;5094940;28;20111;-84
2023/07/26 04:29:31;;;;;;;1.70;1.60;;;;;;;12.08;85.45;101070.69;5094563;28;20031;-84
2023/07/26 04:31:56;;;;;;;1.60;1.50;;;;;;;12.04;85.63;101064.69;5095259;28;20024;-84
2023/07/26 04:34:21;;;;;;;1.83;1.73;;;;;;;11.99;85.43;101056.09;5094763;28;20035;-85
2023/07/26 04:36:47;;;;;;;1.70;1.50;;;;;;;12.06;86.27;101069.84;5094102;28;20036;-85
2023/07/26 04:39:12;;;;;;;1.27;1.17;;;;;;;12.00;86.89;101059.56;5095148;28;20024;-85
2023/07/26 04:41:37;;;;;;;1.03;1.03;;;;;;;11.92;87.92;101048.44;5094854;28;20365;-84
2023/07/26 04:44:03;;;;;;;1.50;1.40;;;;;;;11.99;86.44;101070.84;5093869;28;20044;-84
2023/07/26 04:46:28;;;;;;;1.50;1.40;;;;;;;11.99;87.07;101066.50;5094420;28;20511;-85
2023/07/26 04:48:53;;;;;;;1.17;1.17;;;;;;;11.90;86.57;101053.63;5094711;28;20059;-84
2023/07/26 04:51:21;;;;;;;1.37;1.20;;;;;;;12.05;86.68;101073.34;5093440;28;20086;-84
2023/07/26 04:53:46;;;;;;;1.35;1.25;;;;;;;12.02;87.37;101063.00;5094488;28;20527;-84
2023/07/26 04:56:15;;;;;;;1.30;1.20;;;;;;;12.05;87.75;101076.81;5093607;28;20111;-84
2023/07/26 04:58:41;;;;;;;1.40;1.30;;;;;;;11.99;87.58;101068.25;5094716;28;20020;-84
2023/07/26 05:01:19;;;;;;;1.30;1.20;;;;;;;11.94;88.11;101047.50;5094356;28;20031;-84
2023/07/26 05:03:45;;;;;;;1.10;1.10;;;;;;;12.04;88.45;101059.50;5093772;28;20091;-84
2023/07/26 05:06:11;;;;;;;1.07;1.07;;;;;;;12.11;88.20;101072.38;5094214;28;20035;-84
2023/07/26 05:08:36;;;;;;;2.20;1.60;;;;;;;12.11;89.97;101062.84;5093720;28;20036;-84
2023/07/26 05:11:02;;;;;;;1.30;1.20;;;;;;;12.10;90.33;101058.53;5093423;28;20032;-84
2023/07/26 05:13:27;;;;;;;1.80;1.70;;;;;;;12.10;91.32;101053.31;5094540;28;20042;-84
2023/07/26 05:16:02;;;;;;;1.50;1.40;;;;;;;12.23;90.39;101069.56;5094246;28;20027;-84
2023/07/26 05:18:27;;;;;;;1.30;1.20;;;;;;;12.26;89.36;101063.44;5093363;28;20028;-84
2023/07/26 05:20:52;;;;;;;1.40;1.33;;;;;;;12.29;89.89;101066.84;5094143;28;20024;-84
2023/07/26 05:23:18;;;;;;;1.63;1.53;;;;;;;12.37;91.55;101071.91;5094020;28;20442;-84
2023/07/26 05:25:44;;;;;;;1.50;1.40;;;;;;;12.38;90.10;101064.94;5093554;28;20058;-84
2023/07/26 05:28:21;;;;;;;1.43;1.33;;;;;;;12.39;91.79;101059.69;5093681;28;20827;-84
2023/07/26 05:30:46;;;;;;;1.48;1.35;;;;;;;12.45;91.38;101058.72;5094083;28;20168;-84
2023/07/26 05:33:12;;;;;;;2.20;1.90;;;;;;;12.49;92.58;101060.41;5092802;28;20139;-84
2023/07/26 05:35:40;;;;;;;1.97;1.77;;;;;;;12.67;92.65;101077.41;5093907;28;20024;-84
2023/07/26 05:38:21;;;;;;;3.47;2.42;;;;;;;12.59;93.51;101050.66;5093689;28;20092;-84
2023/07/26 05:40:46;;;;;;;2.47;2.17;;;;;;;12.77;93.22;101071.09;5094375;28;20019;-84
2023/07/26 05:43:12;;;;;;;3.73;2.47;;;;;;;12.83;96.03;101064.91;5093386;28;20384;-83
2023/07/26 05:45:40;;;;;;;2.60;2.40;;;;;;;12.93;94.02;101070.78;5092566;28;20048;-84
2023/07/26 05:48:06;;;;;;;2.55;2.10;;;;;;;13.00;92.78;101059.34;5093561;28;20099;-84
2023/07/26 05:50:47;;;;;;;3.47;2.10;;;;;;;13.26;94.40;101076.16;5093670;28;20162;-84
2023/07/26 05:53:13;;;;;;;2.45;2.20;;;;;;;13.42;94.80;101076.69;5092727;28;20488;-84
2023/07/26 05:55:39;;;;;;;3.00;2.00;;;;;;;13.51;95.10;101066.03;5093490;28;20055;-84
2023/07/26 05:58:13;;;;;;;2.83;2.20;;;;;;;13.60;94.97;101057.13;5094078;28;20055;-83
2023/07/26 06:00:38;;;;;;;2.85;2.55;;;;;;;13.70;94.14;101068.19;5092787;28;20460;-84
2023/07/26 06:03:26;;;;;;;2.20;2.00;;;;;;;13.86;94.16;101085.16;5093406;28;20077;-84
2023/07/26 06:05:51;;;;;;;2.28;1.98;;;;;;;13.87;92.76;101078.19;5093256;28;20468;-83
2023/07/26 06:08:17;;;;;;;2.57;1.90;;;;;;;14.03;91.92;101082.13;5092612;28;20035;-83
2023/07/26 06:10:43;;;;;;;2.50;2.30;;;;;;;14.16;93.99;101087.88;5076509;28;20028;-86
2023/07/26 06:13:12;;;;;;;2.00;1.80;;;;;;;14.28;91.82;101088.44;5093055;28;20289;-85
2023/07/26 06:15:46;;;;;;;2.45;2.00;;;;;;;14.37;92.66;101090.81;5092502;28;20027;-84
2023/07/26 06:18:11;;;;;;;3.75;2.60;;;;;;;14.32;94.68;101087.47;5093246;28;20027;-84
2023/07/26 06:20:49;;;;;;;4.20;2.83;;;;;;;14.35;91.79;101095.25;5092514;28;20414;-83
2023/07/26 06:23:14;;;;;;;3.90;2.70;;;;;;;14.24;93.32;101087.69;5092650;28;20051;-84
2023/07/26 06:25:58;;;;;;;3.07;2.50;;;;;;;14.32;92.76;101106.59;5092945;28;20487;-84
2023/07/26 06:28:38;;;;;;;2.22;2.03;;;;;;;14.27;91.50;101095.44;5092051;28;20490;-84
2023/07/26 06:31:03;;;;;;;1.95;1.77;;;;;;;14.43;92.08;101122.00;5093117;28;20070;-83
2023/07/26 06:33:44;;;;;;;1.97;1.87;;;;;;;14.35;91.62;101122.19;5092915;28;20024;-84
2023/07/26 06:36:09;;;;;;;2.17;1.98;;;;;;;14.31;91.13;101119.69;5092518;28;20496;-84
2023/07/26 06:38:43;;;;;;;1.77;1.67;;;;;;;14.29;90.85;101116.28;5093303;28;20016;-84
2023/07/26 06:41:27;;;;;;;2.38;2.17;;;;;;;14.20;92.74;101110.41;5092665;28;20050;-84
2023/07/26 06:44:08;;;;;;;2.00;1.80;;;;;;;14.29;91.52;101127.59;5091941;28;20054;-84
2023/07/26 06:46:33;;;;;;;3.00;2.20;;;;;;;14.21;92.28;101127.78;5092071;28;20062;-84
2023/07/26 06:49:15;;;;;;;2.20;2.00;;;;;;;14.17;91.83;101126.13;5092838;28;20075;-84
2023/07/26 06:51:41;;;;;;;2.15;1.95;;;;;;;14.22;92.01;101126.00;5092933;28;20024;-84
2023/07/26 06:54:12;;;;;;;1.90;1.80;;;;;;;14.21;92.28;101127.78;5092723;28;20139;-83
2023/07/26 06:56:37;;;;;;;2.03;1.75;;;;;;;14.19;93.67;101131.31;5091765;28;20024;-84
2023/07/26 06:59:08;;;;;;;3.57;1.70;;;;;;;14.22;92.09;101136.44;5092550;28;20499;-83
2023/07/26 07:01:34;;;;;;;3.90;2.30;;;;;;;14.27;92.71;101136.34;5089474;28;20028;-84
2023/07/26 07:03:59;;;;;;;1.80;1.70;;;;;;;14.35;93.14;101153.53;5091853;28;20461;-83
2023/07/26 07:06:24;;;;;;;1.70;1.60;;;;;;;14.40;92.35;101152.56;5092289;28;20032;-83
2023/07/26 07:08:50;;;;;;;2.20;1.60;;;;;;;14.40;92.03;101152.56;5092000;28;20034;-83
2023/07/26 07:11:15;;;;;;;2.10;1.57;;;;;;;14.39;91.82;101149.06;5090190;28;20032;-82
2023/07/26 07:13:44;;;;;;;2.10;1.90;;;;;;;14.33;91.28;101146.63;5092356;28;20032;-83
2023/07/26 07:16:23;;;;;;;2.17;1.67;;;;;;;14.31;91.75;101159.72;5091052;28;20123;-83
2023/07/26 07:18:49;;;;;;;1.65;1.55;;;;;;;14.32;91.91;101168.41;5091671;28;20052;-85
2023/07/26 07:21:14;;;;;;;2.40;1.80;;;;;;;14.28;94.18;101190.25;5092383;28;20412;-84
2023/07/26 07:23:40;;;;;;;2.57;2.10;;;;;;;14.16;93.23;101174.00;5092410;28;20022;-79
2023/07/26 07:26:11;;;;;;;2.07;1.97;;;;;;;14.09;91.92;101195.94;5091610;28;20103;-81
2023/07/26 07:28:40;;;;;;;2.60;2.40;;;;;;;13.90;93.75;101192.91;5092665;28;20047;-82
2023/07/26 07:31:11;;;;;;;3.20;2.40;;;;;;;13.72;92.19;101173.34;5091498;28;20750;-83
2023/07/26 07:33:36;;;;;;;2.50;2.00;;;;;;;13.73;92.20;101177.66;5095527;28;20205;-86
2023/07/26 07:36:04;;;;;;;2.20;2.00;;;;;;;13.80;91.67;101186.19;5095243;28;20066;-85
2023/07/26 07:38:29;;;;;;;2.42;2.00;;;;;;;13.83;91.94;101184.38;5095265;28;20055;-86
2023/07/26 07:40:55;;;;;;;2.03;1.93;;;;;;;13.94;92.42;101191.09;5096342;28;20439;-86
2023/07/26 07:43:22;;;;;;;2.60;1.97;;;;;;;13.97;92.29;101189.25;5087035;28;20392;-82
2023/07/26 07:45:51;;;;;;;2.22;1.80;;;;;;;14.08;92.48;101196.84;5094302;28;20047;-86
2023/07/26 07:48:16;;;;;;;2.00;1.90;;;;;;;14.12;92.63;101187.19;5095646;28;20086;-83
2023/07/26 07:50:41;;;;;;;1.90;1.80;;;;;;;14.11;92.78;101173.28;5095217;28;20020;-83
2023/07/26 07:55:46;;;;;;;1.90;1.80;;;;;;;14.45;92.85;101190.69;4833937;26;20050;-84
2023/07/26 07:58:11;;;;;;;1.85;1.70;;;;;;;14.68;93.44;101168.38;5014413;28;20088;-83
2023/07/26 08:00:36;;;;;;;2.53;2.20;;;;;;;15.12;96.72;101186.28;5014188;28;20037;-83
2023/07/26 08:03:05;;;;;;;2.10;1.90;;;;;;;15.24;96.95;101167.66;5014998;28;20112;-84
2023/07/26 08:05:32;;;;;;;1.90;1.80;;;;;;;15.56;96.94;101178.03;5015358;28;20405;-83
2023/07/26 08:07:57;;;;;;;2.63;2.28;;;;;;;15.81;97.12;101172.88;5014849;28;20018;-84
2023/07/26 08:10:23;;;;;;;2.37;2.00;;;;;;;16.08;94.98;101174.69;5015232;28;20356;-83
2023/07/26 08:12:48;;;;;;;5.20;3.10;;;;;;;16.37;94.79;101178.94;5015468;28;20026;-84
2023/07/26 08:15:16;;;;;;;4.60;2.90;;;;;;;16.55;93.72;101172.22;5014700;28;20030;-81
2023/07/26 08:17:42;;;;;;;3.20;2.30;;;;;;;16.76;93.71;101170.59;5015228;28;20020;-82
2023/07/26 08:20:07;;;;;;;1.90;1.80;;;;;;;17.05;93.02;101176.56;5014569;28;20385;-82
2023/07/26 08:22:34;;;;;;;2.10;1.90;;;;;;;17.27;93.11;101183.63;5013785;28;20029;-82
2023/07/26 08:24:59;;;;;;;2.55;2.03;;;;;;;17.42;92.75;101180.44;5014831;28;20068;-82
2023/07/26 08:27:24;;;;;;;2.07;1.97;;;;;;;17.57;91.34;101186.84;5013006;28;20038;-82
2023/07/26 08:29:50;;;;;;;2.03;1.87;;;;;;;17.65;91.65;101180.44;5013024;28;20084;-82
2023/07/26 08:32:16;;;;;;;2.03;1.83;;;;;;;17.81;90.92;101186.78;5014234;28;20050;-82
2023/07/26 08:34:41;;;;;;;1.40;1.30;;;;;;;17.98;90.03;101188.75;5014710;28;20030;-88
2023/07/26 08:37:08;;;;;;;2.20;2.07;;;;;;;18.04;89.55;101188.50;5014976;28;20053;-82
2023/07/26 08:39:34;;;;;;;2.50;2.30;;;;;;;18.15;88.57;101188.06;5013844;28;20043;-82
2023/07/26 08:42:00;;;;;;;2.45;2.20;;;;;;;18.28;88.41;101184.91;5054404;22;20056;-78
2023/07/26 08:44:29;;;;;;;1.97;1.77;;;;;;;18.41;88.49;101178.19;5009860;28;20042;-81
2023/07/26 08:46:54;;;;;;;2.10;1.90;;;;;;;18.60;88.35;101188.78;5014223;28;20053;-81
2023/07/26 08:49:20;;;;;;;2.40;2.13;;;;;;;18.60;87.64;101175.63;5014884;28;20434;-81
2023/07/26 08:51:46;;;;;;;2.10;1.90;;;;;;;18.65;87.05;101173.66;5015090;28;20096;-86
2023/07/26 08:54:12;;;;;;;4.50;2.90;;;;;;;18.72;85.74;101176.00;5014356;28;20041;-85
2023/07/26 08:56:39;;;;;;;3.00;2.28;;;;;;;18.83;86.39;101187.78;5014530;28;20046;-86
2023/07/26 08:59:22;;;;;;;2.30;2.10;;;;;;;18.85;85.71;101153.50;5000309;28;20033;-86
2023/07/26 09:01:48;;;;;;;2.13;1.92;;;;;;;19.01;86.51;101161.59;4995079;28;20073;-86
2023/07/26 09:04:26;;;;;;;;;;;;;;;19.18;84.88;101178.38;4995328;28;20031;-87
2023/07/26 09:06:52;;;;;;;2.63;1.70;;;;;;;19.13;79.33;101157.56;4995253;28;20008;-86
2023/07/26 09:09:18;;;;;;;2.17;1.80;;;;;;;19.22;82.37;101170.28;4994202;28;20034;-86
2023/07/26 09:11:51;;;;;;;1.70;1.60;;;;;;;19.16;83.60;101161.81;4995202;28;20498;-89
2023/07/26 09:14:17;;;;;;;1.58;1.48;;;;;;;19.28;82.85;101169.97;4994642;28;20037;-84
2023/07/26 09:16:43;;;;;;;1.45;1.35;;;;;;;19.47;79.40;101173.53;4994290;28;20055;-85
2023/07/26 09:19:09;;;;;;;2.40;2.20;;;;;;;19.59;77.88;101152.72;4994292;28;20061;-84
2023/07/26 09:21:46;;;;;;;5.17;3.43;;;;;;;19.50;76.22;101155.81;4995040;28;20029;-84
2023/07/26 09:24:11;;;;;;;3.33;2.40;;;;;;;19.44;78.51;101172.75;4995026;28;20101;-84
2023/07/26 09:26:39;;;;;;;2.10;1.90;;;;;;;19.25;79.25;101166.66;5013887;28;20113;-84
2023/07/26 09:29:16;;;;;;;3.05;2.00;;;;;;;19.06;79.36;101171.91;5013832;28;20113;-84
2023/07/26 09:31:44;;;;;;;;;;;;;;;18.81;80.24;101175.59;5014718;28;20049;-89
2023/07/26 09:34:12;;;;;;;2.28;2.00;;;;;;;18.71;81.59;101169.03;5015134;28;19936;-88
2023/07/26 09:36:44;;;;;;;1.83;1.70;;;;;;;18.87;81.57;101161.31;5014620;28;20042;-88
2023/07/26 09:39:11;;;;;;;1.70;1.60;;;;;;;19.12;81.91;101155.84;5014239;28;20261;-88
2023/07/26 09:41:37;;;;;;;1.88;1.70;;;;;;;19.45;80.82;101153.41;5014357;28;20038;-88
2023/07/26 09:44:19;;;;;;;2.28;2.05;;;;;;;19.47;76.71;101165.63;5014318;28;20136;-85
2023/07/26 09:47:04;;;;;;;3.25;2.10;;;;;;;19.26;75.60;101169.19;5013634;28;20033;-89
2023/07/26 09:49:29;;;;;;;2.67;1.90;;;;;;;18.93;76.87;101147.91;5013763;28;20049;-87
2023/07/26 09:52:15;;;;;;;1.80;1.70;;;;;;;18.72;78.04;101149.72;5013598;28;20018;-87
2023/07/26 09:54:58;;;;;;;2.30;2.10;;;;;;;18.51;76.17;101150.63;5013548;28;20108;-87
2023/07/26 09:57:32;;;;;;;2.90;1.95;;;;;;;18.34;73.44;101158.38;5013760;28;20029;-89
2023/07/26 10:00:16;;;;;;;5.63;3.03;;;;;;;18.29;78.09;101169.09;5014561;28;20053;-89
2023/07/26 10:03:00;;;;;;;4.65;2.58;;;;;;;18.15;75.53;101167.03;5015103;28;20470;-89
2023/07/26 10:05:29;;;;;;;3.22;2.20;;;;;;;18.08;73.45;101152.44;5014364;28;20039;-90
2023/07/26 10:08:12;;;;;;;2.25;2.00;;;;;;;18.50;74.11;101150.69;5014672;28;20021;-89
2023/07/26 10:10:37;;;;;;;2.58;2.13;;;;;;;18.78;70.00;101149.47;5014432;28;20057;-88
2023/07/26 10:13:13;;;;;;;2.10;1.90;;;;;;;19.14;72.57;101164.50;5036118;23;20090;-86
2023/07/26 10:15:50;;;;;;;2.30;2.10;;;;;;;19.58;70.15;101173.88;5014189;28;20475;-89
2023/07/26 10:18:19;;;;;;;3.30;2.10;;;;;;;19.60;69.57;101164.13;5015147;28;20052;-88
2023/07/26 10:20:46;;;;;;;2.55;2.20;;;;;;;19.65;66.39;101179.69;5012242;28;20022;-86
2023/07/26 10:26:01;;;;;;;;;;;;;;;19.40;69.46;101179.09;4998226;28;20044;-89
2023/07/26 10:28:43;;;;;;;2.78;2.05;;;;;;;19.23;71.44;101169.34;5005168;28;19996;-88
2023/07/26 10:31:09;;;;;;;1.80;1.70;;;;;;;19.24;71.65;101167.56;5013955;28;20030;-88
2023/07/26 10:34:02;;;;;;;2.90;2.23;;;;;;;19.25;69.75;101153.50;5013972;28;20049;-88
2023/07/26 10:36:46;;;;;;;2.97;2.20;;;;;;;19.56;69.46;101147.63;5013869;28;20042;-88
2023/07/26 10:39:12;;;;;;;2.55;2.00;;;;;;;19.84;69.90;101137.53;5013521;28;20078;-87
2023/07/26 10:42:05;;;;;;;2.97;2.20;;;;;;;20.08;65.39;101140.72;5015653;28;20026;-87
2023/07/26 10:44:40;;;;;;;3.08;2.08;;;;;;;20.35;67.40;101137.63;5012045;28;20053;-88
2023/07/26 10:47:11;;;;;;;2.40;2.10;;;;;;;20.48;67.18;101135.19;5013247;28;20577;-88
2023/07/26 10:49:54;;;;;;;3.45;2.35;;;;;;;20.72;67.90;101148.84;5012600;28;20030;-86
2023/07/26 10:52:48;;;;;;;5.35;2.58;;;;;;;20.78;66.45;101142.41;5013890;28;20022;-88
2023/07/26 10:55:34;;;;;;;4.80;2.85;;;;;;;20.96;66.47;101157.28;5012129;28;20058;-90
2023/07/26 10:57:59;;;;;;;6.10;2.90;;;;;;;20.99;65.97;101145.69;5014574;28;20078;-89
2023/07/26 11:00:45;;;;;;;4.60;2.90;;;;;;;21.14;63.56;101159.84;5013770;28;20029;-91
2023/07/26 11:03:11;;;;;;;4.57;2.60;;;;;;;21.19;65.88;101159.56;5013817;28;20041;-91
2023/07/26 11:05:56;;;;;;;2.87;2.20;;;;;;;21.24;64.00;101147.00;5013358;28;20026;-89
2023/07/26 11:08:42;;;;;;;4.85;2.60;;;;;;;21.38;65.33;101148.84;5017009;28;20026;-87
2023/07/26 11:11:19;;;;;;;4.03;2.40;;;;;;;21.54;62.97;101147.06;5017686;28;20041;-90
2023/07/26 11:13:45;;;;;;;6.40;3.38;;;;;;;21.49;61.00;101145.63;5018423;28;20129;-88
2023/07/26 11:16:31;;;;;;;5.93;3.03;;;;;;;21.43;59.76;101138.91;5016959;28;20026;-89
2023/07/26 11:18:57;;;;;;;5.47;2.90;;;;;;;21.21;62.07;101155.94;5017329;28;20414;-90
2023/07/26 11:21:23;;;;;;;5.37;2.93;;;;;;;20.90;63.52;101138.28;5017571;28;20085;-89
2023/07/26 11:23:52;;;;;;;2.88;2.00;;;;;;;21.05;65.47;101150.66;5006819;28;20077;-90
2023/07/26 11:26:25;;;;;;;2.22;2.00;;;;;;;21.19;64.68;101143.75;4997494;28;20471;-89
2023/07/26 11:29:02;;;;;;;1.95;1.80;;;;;;;21.16;65.37;101133.38;4998145;28;20053;-90
2023/07/26 11:31:28;;;;;;;1.63;1.52;;;;;;;21.12;65.85;101153.78;4997380;28;20142;-89
2023/07/26 11:33:53;;;;;;;1.87;1.70;;;;;;;20.98;65.75;101151.91;4997686;28;20062;-90
2023/07/26 11:36:30;;;;;;;2.53;1.60;;;;;;;20.81;65.08;101151.03;4997576;28;20058;-91
2023/07/26 11:38:56;;;;;;;1.50;1.40;;;;;;;20.90;64.81;101156.75;5004518;28;20152;-89
2023/07/26 11:41:21;;;;;;;1.80;1.60;;;;;;;21.06;62.37;101154.13;5018111;28;20320;-90
2023/07/26 11:44:11;;;;;;;3.30;2.30;;;;;;;21.19;55.40;101156.94;5017496;28;20072;-87